首页
METAR-TAF:

METAR-TAF

机场 :

茨城机场

百里飛行場, 日本

纬度: 36-11N, 经度: 140-25E, 海拔: 32米

当前天气观测

该预报发布于31分钟前的09:00 UTC
风速11节,风向东北
温度 13°C
湿度 94%
气压 997 hPa
能見度: 1500
少量云层高于100英尺
阴天层高于200英尺
小雨, 轻雾

METAR: RJAH 010900Z 04011KT 1500 R03/P1800N -RA BR FEW001 OVC002 13/12 Q0997

时间: 18:31 (09:31 UTC)

预报

该预报发布于45分钟前的08:46 UTC
预报有效从01日的 08点(UTC)到 02日的 12点(UTC)
风速12节,风向东北
能見度: 6000
少量云层高于800英尺
多云层高于1200英尺
小雨
短暂存在
从 01日的 08点(UTC)到 01日的 15点(UTC)
能見度: 1500
少量云层高于100英尺
多云层高于200英尺
雨, 轻雾
成为
从 01日的 14点(UTC)到 01日的 16点(UTC)
风速10节,风向西北
短暂存在
从 01日的 15点(UTC)到 01日的 18点(UTC)
能見度: 2000
少量云层高于300英尺
多云层高于500英尺
小阵雨, 轻雾

TAF: RJAH 010846Z 0108/0212 04012KT 6000 -RA FEW008 BKN012 TEMPO 0108/0115 1500 RA BR FEW001 BKN002 BECMG 0114/0116 32010KT TEMPO 0115/0118 2000 -SHRA BR FEW003 BKN005

超过4000个机场的气象观测和天气预报(METAR&TAF报告)。

可查询的气象台以黄色和红色小点在地图上表示。

将鼠标移到小点上方,可查看气象台名称。

然后点击查看天气观测和预报。

如需切换地图:点击带黑十字的绿色按钮放大地图;点击带横线的绿色按钮缩小地图;或者点击绿色箭头查看邻近地区的地图。


METAR-TAF: